Latest Coastal Weather Observations for Friendly Beaches

IDT60701

Issued at 10:42 pm EST Wednesday 26 July 2017 (issued every 10 minutes, with the page automatically refreshed every 10 minutes)

About coastal observations | Map of coastal stations | Coastal observations for TAS | Marine services | Other Formats
Station Details ID: 092114 Name: FRIENDLY BEACHES Lat: -42.00 Lon: 148.28 Height: 55.0 m
Data from the previous 72 hours. | See also: Recent months at Friendly Beaches
Date/Time
EST
Temp
°C
Wind Pressure Rain since
9am
mm
Weather Cloud Vis
km
Sea
Height
m
Swell
Dir  Spd
kts
Gust
kts
hPa Trend Height
m
Period
s
Dir
26/10:30pm 4.4 WSW 4 6 1019.1 - 0.0 - - - - - - -
26/10:00pm 3.7 W 1 3 1018.9 - 0.0 - - - - - - -
26/09:30pm 4.7 WSW 3 5 1018.5 - 0.0 - - - - - - -
26/09:00pm 4.3 W 4 5 1018.5 - 0.0 - - - - - - -
26/08:30pm 4.9 W 5 7 1018.1 - 0.0 - - - - - - -
26/08:00pm 5.2 WSW 4 6 1017.8 - 0.0 - - - - - - -
26/07:30pm 5.8 WSW 4 6 1017.4 - 0.0 - - - - - - -
26/07:00pm 6.3 WSW 6 7 1016.8 - 0.0 - - - - - - -
26/06:30pm 6.2 SW 5 6 1016.3 - 0.0 - - - - - - -
26/06:00pm 6.9 WSW 4 7 1015.7 - 0.0 - - - - - - -
26/05:30pm 7.5 SSW 7 12 1015.4 - 0.0 - - - - - - -
26/05:00pm 7.6 SSW 7 13 1014.9 - 0.0 - - - - - - -
26/04:30pm 7.8 SSW 5 9 1014.3 - 0.0 - - - - - - -
26/04:00pm 8.4 S 4 6 1013.7 - 0.0 - - - - - - -
26/03:30pm 9.6 SSW 5 11 1013.2 - 0.0 - - - - - - -
26/03:00pm 9.4 SSW 9 15 1012.9 - 0.0 - - - - - - -
26/02:30pm 10.5 SSW 9 14 1012.5 - 0.0 - - - - - - -
26/02:00pm 10.6 SSW 11 20 1012.2 - 0.0 - - - - - - -
26/01:30pm 10.7 SSW 10 17 1011.6 - 0.0 - - - - - - -
26/01:00pm 10.1 SSW 13 23 1011.1 - 0.0 - - - - - - -
26/12:30pm 10.2 SSW 10 17 1010.8 - 0.0 - - - - - - -
26/12:00pm 10.3 SSW 13 24 1010.5 - 0.0 - - - - - - -
26/11:30am 10.3 SSW 13 24 1009.9 - 0.0 - - - - - - -
26/11:00am 10.4 SSW 9 19 1009.7 - 0.0 - - - - - - -
26/10:30am 10.0 SW 11 19 1009.2 - 0.0 - - - - - - -
26/10:00am 9.1 SSW 11 20 1008.5 - 0.0 - - - - - - -
26/09:30am 9.1 SW 12 19 1007.8 - 0.0 - - - - - - -
26/09:00am 8.8 SW 12 22 1007.0 - 0.0 - - - - - - -
26/08:30am 8.8 SW 13 23 1006.0 - 0.0 - - - - - - -
26/08:21am 8.6 SW 15 27 1005.7 - 0.0 - - - - - - -
26/08:00am 8.0 SW 11 22 1005.1 - 0.0 - - - - - - -
26/07:30am 8.5 SW 13 22 1004.3 - 0.0 - - - - - - -
26/07:00am 9.5 SW 9 16 1003.2 - 0.0 - - - - - - -
26/06:30am 9.6 SW 8 12 1002.3 - 0.0 - - - - - - -
26/06:00am 9.2 WSW 7 10 1001.3 - 0.0 - - - - - - -
26/05:30am 8.8 WSW 4 7 1000.8 - 0.0 - - - - - - -
26/05:00am 8.9 WSW 3 5 1000.6 - 0.0 - - - - - - -
26/04:30am 9.9 W 5 8 1000.4 - 0.0 - - - - - - -
26/04:00am 10.5 WNW 7 13 1000.2 - 0.0 - - - - - - -
26/03:30am 10.8 WNW 7 12 1000.5 - 0.0 - - - - - - -
26/03:00am 11.1 WNW 8 15 1000.6 - 0.0 - - - - - - -
26/02:30am 11.1 NW 7 13 1001.1 - 0.0 - - - - - - -
26/02:00am 11.2 NW 8 16 1000.9 - 0.0 - - - - - - -
26/01:30am 11.1 NW 9 17 1001.1 - 0.0 - - - - - - -
26/01:00am 11.5 WNW 10 21 1001.6 - 0.0 - - - - - - -
26/12:30am 11.0 WNW 8 15 1001.9 - 0.0 - - - - - - -
26/12:00am 10.4 NW 6 9 1002.2 - 0.0 - - - - - - -
 
Date/Time
EST
Temp
°C
Wind Pressure Rain since
9am
mm
Weather Cloud Vis
km
Sea
Height
m
Swell
Dir  Spd
kts
Gust
kts
hPa Trend Height
m
Period
s
Dir
25/11:30pm 10.9 WNW 4 7 1002.3 - 0.0 - - - - - - -
25/11:00pm 11.1 NW 6 10 1002.4 - 0.0 - - - - - - -
25/10:30pm 10.7 NW 6 13 1002.5 - 0.0 - - - - - - -
25/10:00pm 10.5 N 4 7 1002.6 - 0.0 - - - - - - -
25/09:30pm 11.0 NNW 3 8 1003.1 - 0.0 - - - - - - -
25/09:00pm 10.9 WNW 3 8 1003.3 - 0.0 - - - - - - -
25/08:30pm 11.3 NW 3 13 1003.3 - 0.0 - - - - - - -
25/08:00pm 11.9 WNW 5 13 1003.4 - 0.0 - - - - - - -
25/07:30pm 12.1 WNW 8 18 1003.3 - 0.0 - - - - - - -
25/07:00pm 12.4 WNW 7 13 1003.3 - 0.0 - - - - - - -
25/06:30pm 12.6 NW 9 15 1003.3 - 0.0 - - - - - - -
25/06:00pm 12.8 WNW 9 18 1003.2 - 0.0 - - - - - - -
25/05:30pm 13.2 WNW 10 17 1003.1 - 0.0 - - - - - - -
25/05:00pm 13.4 WNW 10 22 1002.9 - 0.0 - - - - - - -
25/04:30pm 14.1 WNW 11 25 1002.9 - 0.0 - - - - - - -
25/04:00pm 14.7 WNW 14 25 1003.0 - 0.0 - - - - - - -
25/03:30pm 14.9 WNW 9 16 1003.2 - 0.0 - - - - - - -
25/03:00pm 15.4 WNW 12 22 1003.3 - 0.0 - - - - - - -
25/02:49pm 15.3 WNW 15 28 1003.3 - 0.0 - - - - - - -
25/02:30pm 15.7 WNW 11 20 1003.4 - 0.0 - - - - - - -
25/02:00pm 15.5 WNW 12 22 1003.7 - 0.0 - - - - - - -
25/01:30pm 14.7 WNW 12 27 1004.0 - 0.0 - - - - - - -
25/01:00pm 15.1 WNW 12 26 1004.5 - 0.0 - - - - - - -
25/12:30pm 14.7 WNW 14 25 1004.8 - 0.0 - - - - - - -
25/12:00pm 14.9 NW 12 23 1005.2 - 0.0 - - - - - - -
25/11:30am 15.1 WNW 9 19 1005.9 - 0.0 - - - - - - -
25/11:00am 15.1 WNW 10 19 1006.4 - 0.0 - - - - - - -
25/10:30am 14.1 NW 6 13 1007.1 - 0.0 - - - - - - -
25/10:00am 11.9 N 5 9 1007.5 - 0.0 - - - - - - -
25/09:30am 10.9 N 9 17 1007.8 - 0.0 - - - - - - -
25/09:00am 10.3 N 11 17 1008.0 - 0.0 - - - - - - -
25/08:30am 10.2 N 10 15 1008.1 - 0.0 - - - - - - -
25/08:00am 9.6 N 11 18 1008.5 - 0.0 - - - - - - -
25/07:30am 8.9 N 12 20 1009.0 - 0.0 - - - - - - -
25/07:00am 8.0 NNE 5 9 1009.4 - 0.0 - - - - - - -
25/06:30am 7.6 NNW 4 5 1009.9 - 0.0 - - - - - - -
25/06:00am 8.5 WNW 5 9 1010.4 - 0.0 - - - - - - -
25/05:30am 9.0 WNW 10 17 1010.5 - 0.0 - - - - - - -
25/05:00am 8.4 WNW 10 18 1010.5 - 0.0 - - - - - - -
25/04:30am 8.5 WNW 9 17 1010.6 - 0.0 - - - - - - -
25/04:00am 8.8 WNW 11 17 1011.0 - 0.0 - - - - - - -
25/03:30am 8.8 NW 12 20 1011.0 - 0.0 - - - - - - -
25/03:00am 8.5 WNW 11 19 1011.1 - 0.0 - - - - - - -
25/02:30am 8.4 WNW 10 17 1011.2 - 0.0 - - - - - - -
25/02:00am 7.9 W 6 17 1011.3 - 0.0 - - - - - - -
25/01:30am 7.9 W 5 13 1011.3 - 0.0 - - - - - - -
25/01:00am 7.7 WNW 7 15 1011.6 - 0.0 - - - - - - -
25/12:30am 7.3 WNW 5 10 1012.0 - 0.0 - - - - - - -
25/12:00am 7.1 WNW 7 14 1012.3 - 0.0 - - - - - - -
 
Date/Time
EST
Temp
°C
Wind Pressure Rain since
9am
mm
Weather Cloud Vis
km
Sea
Height
m
Swell
Dir  Spd
kts
Gust
kts
hPa Trend Height
m
Period
s
Dir
24/11:30pm 7.0 WNW 6 11 1012.6 - 0.0 - - - - - - -
24/11:00pm 6.6 NW 6 9 1012.5 - 0.0 - - - - - - -
24/10:30pm 6.8 NW 7 12 1012.5 - 0.0 - - - - - - -
24/10:00pm 6.4 NW 5 7 1012.7 - 0.0 - - - - - - -
24/09:30pm 6.6 NW 5 8 1012.6 - 0.0 - - - - - - -
24/09:00pm 6.8 NW 4 7 1012.5 - 0.0 - - - - - - -
24/08:30pm 7.3 NW 4 8 1012.5 - 0.0 - - - - - - -
24/08:00pm 7.7 WNW 6 10 1012.3 - 0.0 - - - - - - -
24/07:30pm 7.9 NW 6 10 1012.3 - 0.0 - - - - - - -
24/07:00pm 8.1 WNW 7 12 1012.0 - 0.0 - - - - - - -
24/06:30pm 7.8 WNW 5 8 1012.0 - 0.0 - - - - - - -
24/06:00pm 8.6 WNW 6 10 1011.6 - 0.0 - - - - - - -
24/05:30pm 9.3 WNW 7 15 1011.6 - 0.0 - - - - - - -
24/05:00pm 9.3 WNW 6 12 1011.2 - 0.0 - - - - - - -
24/04:30pm 10.2 WNW 6 12 1011.1 - 0.0 - - - - - - -
24/04:00pm 10.8 NW 5 9 1010.8 - 0.0 - - - - - - -
24/03:30pm 11.6 NW 5 9 1010.6 - 0.0 - - - - - - -
24/03:00pm 12.6 WNW 5 10 1010.7 - 0.0 - - - - - - -
24/02:30pm 13.0 NW 4 9 1010.8 - 0.0 - - - - - - -
24/02:00pm 12.7 WNW 5 9 1010.9 - 0.0 - - - - - - -
24/01:30pm 12.8 WNW 6 11 1011.1 - 0.0 - - - - - - -
24/01:00pm 12.2 WNW 6 10 1011.2 - 0.0 - - - - - - -
24/12:30pm 11.8 W 6 10 1011.5 - 0.0 - - - - - - -
24/12:00pm 11.7 WNW 7 14 1011.6 - 0.0 - - - - - - -
24/11:30am 11.3 WNW 7 11 1011.9 - 0.0 - - - - - - -
24/11:00am 10.5 W 7 14 1012.3 - 0.0 - - - - - - -
24/10:30am 10.1 NW 4 6 1012.4 - 0.0 - - - - - - -
24/10:00am 8.2 NNW 5 7 1012.4 - 0.0 - - - - - - -
24/09:30am 7.2 NNW 3 6 1012.6 - 0.0 - - - - - - -
24/09:00am 6.3 NW 4 5 1012.5 - 1.8 - - - - - - -
24/08:30am 5.0 WNW 2 5 1012.2 - 1.8 - - - - - - -
24/08:00am 4.1 WNW 3 4 1011.8 - 1.8 - - - - - - -
24/07:30am 4.4 WNW 4 8 1011.6 - 1.8 - - - - - - -
24/07:00am 4.1 WNW 7 13 1011.0 - 1.8 - - - - - - -
24/06:30am 4.0 WNW 4 9 1010.8 - 1.8 - - - - - - -
24/06:00am 4.6 W 4 6 1010.3 - 1.8 - - - - - - -
24/05:30am 5.1 W 7 10 1010.2 - 1.8 - - - - - - -
24/05:00am 4.5 WSW 7 11 1010.0 - 1.8 - - - - - - -
24/04:30am 3.8 WNW 5 10 1009.6 - 1.8 - - - - - - -
24/04:00am 2.9 NNW 2 3 1009.6 - 1.8 - - - - - - -
24/03:30am 3.2 NW 2 3 1009.5 - 1.8 - - - - - - -
24/03:00am 3.3 WNW 3 4 1009.5 - 1.8 - - - - - - -
24/02:30am 4.5 W 5 7 1009.6 - 1.8 - - - - - - -
24/02:00am 3.6 WNW 6 7 1009.4 - 1.8 - - - - - - -
24/01:30am 4.4 WSW 8 13 1009.1 - 1.8 - - - - - - -
24/01:00am 3.1 SW 5 6 1009.4 - 1.8 - - - - - - -
24/12:30am 3.8 W 4 6 1009.5 - 1.8 - - - - - - -
24/12:00am 3.6 WNW 5 6 1009.4 - 1.8 - - - - - - -
 
Date/Time
EST
Temp
°C
Wind Pressure Rain since
9am
mm
Weather Cloud Vis
km
Sea
Height
m
Swell
Dir  Spd
kts
Gust
kts
hPa Trend Height
m
Period
s
Dir
23/11:30pm 4.2 W 5 8 1009.3 - 1.8 - - - - - - -
23/11:00pm 4.1 WNW 5 7 1009.2 - 1.8 - - - - - - -

Other Formats:

Comma delimited format used in spreadsheet applications
http://www.bom.gov.au/fwo/IDT60701/IDT60701.94987.axf

JavaScript Object Notation format (JSON) in row-major order
http://www.bom.gov.au/fwo/IDT60701/IDT60701.94987.json